createdAt,value
2022-09-16T00:00:57.367Z,100310.84
2022-09-16T00:03:25.399Z,100310.34
2022-09-16T00:05:54.300Z,100305.16
2022-09-16T00:08:22.845Z,100317.00
2022-09-16T00:10:51.154Z,100307.47
2022-09-16T00:13:19.240Z,100308.47
2022-09-16T00:15:50.636Z,100306.78
2022-09-16T00:18:21.323Z,100306.13
2022-09-16T00:20:51.372Z,100301.78
2022-09-16T00:23:20.636Z,100310.09
2022-09-16T00:25:52.388Z,100306.75
2022-09-16T00:28:21.554Z,100313.09
2022-09-16T00:30:49.134Z,100307.22
2022-09-16T00:33:17.526Z,100296.72
2022-09-16T00:35:46.846Z,100301.22
2022-09-16T00:38:14.876Z,100304.06
2022-09-16T00:40:46.825Z,100305.03
2022-09-16T00:43:14.565Z,100298.88
2022-09-16T00:45:44.604Z,100300.03
2022-09-16T00:48:17.775Z,100294.88
2022-09-16T00:50:49.238Z,100300.19
2022-09-16T00:53:21.531Z,100306.53
2022-09-16T00:55:52.289Z,100304.84
2022-09-16T00:58:24.621Z,100306.84
2022-09-16T01:00:52.486Z,100307.84
2022-09-16T01:03:20.846Z,100306.19
2022-09-16T01:05:50.806Z,100319.66
2022-09-16T01:08:18.406Z,100306.31
2022-09-16T01:10:45.980Z,100310.81
2022-09-16T01:13:15.901Z,100303.81
2022-09-16T01:15:50.086Z,100310.13
2022-09-16T01:18:27.942Z,100299.47
2022-09-16T01:21:15.772Z,100293.31
2022-09-16T01:24:20.990Z,100303.13
2022-09-16T01:27:45.437Z,100307.66
2022-09-16T01:30:52.407Z,100315.78
2022-09-16T01:33:32.527Z,100312.97
2022-09-16T01:36:25.429Z,100309.47
2022-09-16T01:39:07.992Z,100299.63
2022-09-16T01:41:48.593Z,100305.97
2022-09-16T01:44:26.743Z,100305.97
2022-09-16T01:47:03.475Z,100304.97
2022-09-16T01:49:40.319Z,100307.47
2022-09-16T01:52:19.381Z,100306.81
2022-09-16T01:54:53.858Z,100307.47
2022-09-16T01:57:28.352Z,100301.13
2022-09-16T02:00:01.656Z,100306.31
2022-09-16T02:02:59.840Z,100296.50
2022-09-16T02:05:33.284Z,100300.84
2022-09-16T02:08:04.568Z,100291.84
2022-09-16T02:10:36.409Z,100313.84
2022-09-16T02:13:11.215Z,100297.00
2022-09-16T02:15:46.797Z,100296.84
2022-09-16T02:18:25.052Z,100300.34
2022-09-16T02:20:55.921Z,100303.00
2022-09-16T02:23:26.520Z,100302.03
2022-09-16T02:25:56.434Z,100297.66
2022-09-16T02:28:30.506Z,100293.19
2022-09-16T02:31:01.400Z,100302.03
2022-09-16T02:33:34.369Z,100295.00
2022-09-16T02:36:04.369Z,100296.69
2022-09-16T02:38:38.876Z,100295.00
2022-09-16T02:41:06.930Z,100290.53
2022-09-16T02:43:34.584Z,100288.53
2022-09-16T02:46:10.109Z,100295.69
2022-09-16T02:48:51.780Z,100306.38
2022-09-16T02:51:30.506Z,100297.38
2022-09-16T02:54:02.499Z,100296.53
2022-09-16T02:56:31.691Z,100297.38
2022-09-16T02:59:00.096Z,100297.53
2022-09-16T03:01:29.518Z,100296.69
2022-09-16T03:03:58.672Z,100292.19
2022-09-16T03:06:28.924Z,100297.66
2022-09-16T03:09:00.805Z,100301.19
2022-09-16T03:11:50.362Z,100297.53
2022-09-16T03:14:43.737Z,100289.53
2022-09-16T03:17:26.378Z,100288.69
2022-09-16T03:20:05.256Z,100277.19
2022-09-16T03:22:44.974Z,100286.03
2022-09-16T03:25:23.564Z,100280.81
2022-09-16T03:27:53.617Z,100282.84
2022-09-16T03:30:21.480Z,100279.16
2022-09-16T03:32:54.004Z,100283.66
2022-09-16T03:35:28.350Z,100280.81
2022-09-16T03:37:58.268Z,100279.16
2022-09-16T03:40:29.501Z,100287.00
2022-09-16T03:42:58.807Z,100272.16
2022-09-16T03:45:26.841Z,100276.50
2022-09-16T03:47:54.731Z,100273.00
2022-09-16T03:50:23.690Z,100275.66
2022-09-16T03:52:51.348Z,100280.81
2022-09-16T03:55:19.056Z,100273.81
2022-09-16T03:57:46.629Z,100266.00
2022-09-16T04:00:15.962Z,100268.81
2022-09-16T04:02:44.357Z,100268.97
2022-09-16T04:05:12.040Z,100268.97
2022-09-16T04:07:41.254Z,100270.78
2022-09-16T04:10:12.195Z,100272.78
2022-09-16T04:12:39.826Z,100268.47
2022-09-16T04:15:08.520Z,100272.13
2022-09-16T04:17:36.260Z,100269.59
2022-09-16T04:20:05.121Z,100268.75
2022-09-16T04:22:32.727Z,100265.25
2022-09-16T04:25:01.653Z,100258.25
2022-09-16T04:27:29.222Z,100253.25
2022-09-16T04:29:56.920Z,100256.06
2022-09-16T04:32:24.611Z,100262.72
2022-09-16T04:34:52.382Z,100262.88
2022-09-16T04:37:19.936Z,100266.88
2022-09-16T04:39:47.612Z,100263.19
2022-09-16T04:42:16.477Z,100251.16
2022-09-16T04:44:44.736Z,100255.00
2022-09-16T04:47:12.710Z,100258.81
2022-09-16T04:49:40.333Z,100256.97
2022-09-16T04:52:08.064Z,100258.31
2022-09-16T04:54:35.770Z,100260.28
2022-09-16T04:57:03.355Z,100250.59
2022-09-16T04:59:32.241Z,100259.75
2022-09-16T05:02:00.290Z,100250.09
2022-09-16T05:04:27.902Z,100268.22
2022-09-16T05:06:55.524Z,100256.91
2022-09-16T05:09:23.331Z,100260.69
2022-09-16T05:11:51.200Z,100263.53
2022-09-16T05:14:19.364Z,100266.34
2022-09-16T05:16:48.315Z,100269.97
2022-09-16T05:19:16.341Z,100271.97
2022-09-16T05:21:44.053Z,100267.47
2022-09-16T05:24:13.354Z,100270.16
2022-09-16T05:26:43.064Z,100268.47
2022-09-16T05:29:13.036Z,100267.66
2022-09-16T05:31:42.431Z,100270.31
2022-09-16T05:34:15.314Z,100275.47
2022-09-16T05:36:44.187Z,100264.97
2022-09-16T05:39:28.184Z,100264.81
2022-09-16T05:41:58.111Z,100269.16
2022-09-16T05:44:27.128Z,100266.47
2022-09-16T05:46:55.113Z,100266.47
2022-09-16T05:49:24.497Z,100264.81
2022-09-16T05:51:53.016Z,100262.16
2022-09-16T05:54:23.642Z,100265.34
2022-09-16T05:56:51.960Z,100263.53
2022-09-16T05:59:19.806Z,100271.34
2022-09-16T06:01:47.598Z,100266.56
2022-09-16T06:04:16.509Z,100275.38
2022-09-16T06:06:47.804Z,100280.56
2022-09-16T06:09:17.856Z,100276.06
2022-09-16T06:11:48.202Z,100280.25
2022-09-16T06:14:17.067Z,100283.88
2022-09-16T06:16:45.397Z,100285.44
2022-09-16T06:19:15.069Z,100279.75
2022-09-16T06:21:45.808Z,100277.94
2022-09-16T06:24:14.902Z,100288.59
2022-09-16T06:26:44.421Z,100290.97
2022-09-16T06:29:12.932Z,100290.66
2022-09-16T06:31:41.510Z,100286.84
2022-09-16T06:34:13.902Z,100295.38
2022-09-16T06:36:45.036Z,100288.72
2022-09-16T06:39:16.295Z,100284.75
2022-09-16T06:41:44.578Z,100278.09
2022-09-16T06:44:12.228Z,100281.09
2022-09-16T06:46:39.887Z,100276.28
2022-09-16T06:49:07.489Z,100280.81
2022-09-16T06:51:35.764Z,100271.69
2022-09-16T06:54:05.600Z,100276.19
2022-09-16T06:56:37.465Z,100277.53
2022-09-16T06:59:05.245Z,100285.22
2022-09-16T07:01:33.742Z,100272.72
2022-09-16T07:04:05.280Z,100273.25
2022-09-16T07:07:04.852Z,100278.56
2022-09-16T07:09:21.087Z,100273.06
2022-09-16T07:11:50.121Z,100273.91
2022-09-16T07:14:17.864Z,100275.56
2022-09-16T07:16:45.522Z,100277.25
2022-09-16T07:19:13.243Z,100282.56
2022-09-16T07:21:41.575Z,100277.25
2022-09-16T07:24:12.099Z,100279.25
2022-09-16T07:26:41.225Z,100276.94
2022-09-16T07:29:12.774Z,100277.81
2022-09-16T07:31:40.765Z,100288.34
2022-09-16T07:34:10.992Z,100298.50
2022-09-16T07:36:40.762Z,100290.66
2022-09-16T07:39:09.504Z,100296.53
2022-09-16T07:41:39.752Z,100296.06
2022-09-16T07:44:09.645Z,100292.28
2022-09-16T07:46:38.717Z,100292.81
2022-09-16T07:49:08.539Z,100302.34
2022-09-16T07:51:36.674Z,100295.19
2022-09-16T07:54:06.707Z,100291.34
2022-09-16T07:56:37.398Z,100305.03
2022-09-16T07:59:07.817Z,100297.84
2022-09-16T08:01:38.868Z,100302.50
2022-09-16T08:04:10.324Z,100302.16
2022-09-16T08:06:39.963Z,100307.63
2022-09-16T08:09:15.606Z,100309.75
2022-09-16T08:11:55.644Z,100310.13
2022-09-16T08:14:23.352Z,100317.09
2022-09-16T08:16:51.629Z,100308.69
2022-09-16T08:19:22.533Z,100315.84
2022-09-16T08:21:50.253Z,100309.13
2022-09-16T08:24:17.812Z,100310.28
2022-09-16T08:26:45.472Z,100311.53
2022-09-16T08:29:13.355Z,100311.84
2022-09-16T08:31:41.277Z,100305.59
2022-09-16T08:34:08.878Z,100310.75
2022-09-16T08:36:38.194Z,100310.03
2022-09-16T08:39:05.772Z,100316.00
2022-09-16T08:41:44.460Z,100312.56
2022-09-16T08:44:21.218Z,100311.63
2022-09-16T08:46:53.712Z,100314.31
2022-09-16T08:49:30.935Z,100316.03
2022-09-16T08:52:02.825Z,100311.59
2022-09-16T08:54:37.175Z,100309.16
2022-09-16T08:57:07.480Z,100314.47
2022-09-16T08:59:37.764Z,100306.81
2022-09-16T09:02:23.737Z,100318.28
2022-09-16T09:04:51.852Z,100316.88
2022-09-16T09:07:30.160Z,100326.22
2022-09-16T09:10:08.539Z,100315.50
2022-09-16T09:12:42.361Z,100317.34
2022-09-16T09:15:28.591Z,100322.16
2022-09-16T09:18:20.149Z,100312.16
2022-09-16T09:20:55.396Z,100313.53
2022-09-16T09:23:44.342Z,100320.13
2022-09-16T09:26:21.158Z,100317.69
2022-09-16T09:29:13.091Z,100314.91
2022-09-16T09:31:47.620Z,100313.00
2022-09-16T09:34:31.406Z,100312.75
2022-09-16T09:37:14.367Z,100315.13
2022-09-16T09:40:01.572Z,100317.97
2022-09-16T09:42:32.392Z,100310.94
2022-09-16T09:45:04.736Z,100306.69
2022-09-16T09:47:40.872Z,100303.69
2022-09-16T09:50:18.530Z,100302.81
2022-09-16T09:52:54.219Z,100302.31
2022-09-16T09:55:25.988Z,100304.28
2022-09-16T09:58:09.578Z,100296.69
2022-09-16T10:00:37.287Z,100293.09
2022-09-16T10:03:08.121Z,100300.59
2022-09-16T10:05:35.694Z,100296.59
2022-09-16T10:08:05.833Z,100290.50
2022-09-16T10:10:36.201Z,100292.28
2022-09-16T10:13:11.403Z,100295.59
2022-09-16T10:15:39.446Z,100301.25
2022-09-16T10:18:14.207Z,100286.44
2022-09-16T10:20:45.180Z,100291.06
2022-09-16T10:23:15.189Z,100283.47
2022-09-16T10:25:44.630Z,100281.97
2022-09-16T10:28:21.084Z,100287.00
2022-09-16T10:30:51.702Z,100285.69
2022-09-16T10:33:25.059Z,100289.56
2022-09-16T10:35:57.849Z,100277.44
2022-09-16T10:38:28.250Z,100288.56
2022-09-16T10:41:01.999Z,100278.00
2022-09-16T10:43:32.066Z,100275.41
2022-09-16T10:46:00.238Z,100270.72
2022-09-16T10:48:30.432Z,100272.72
2022-09-16T10:50:59.867Z,100264.66
2022-09-16T10:53:30.807Z,100261.16
2022-09-16T10:56:02.433Z,100265.50
2022-09-16T10:58:30.110Z,100264.13
2022-09-16T11:01:16.358Z,100263.47
2022-09-16T11:04:39.804Z,100259.28
2022-09-16T11:07:27.533Z,100254.19
2022-09-16T11:10:10.869Z,100270.88
2022-09-16T11:13:28.730Z,100259.97
2022-09-16T11:16:23.517Z,100262.06
2022-09-16T11:19:02.188Z,100261.63
2022-09-16T11:21:55.757Z,100263.75
2022-09-16T11:24:40.220Z,100265.13
2022-09-16T11:27:18.224Z,100257.00
2022-09-16T11:30:05.305Z,100247.63
2022-09-16T11:32:49.937Z,100263.84
2022-09-16T11:35:32.264Z,100261.31
2022-09-16T11:38:07.008Z,100264.50
2022-09-16T11:40:46.817Z,100268.94
2022-09-16T11:43:53.657Z,100272.28
2022-09-16T11:46:32.017Z,100258.19
2022-09-16T11:49:18.396Z,100251.34
2022-09-16T11:52:02.240Z,100262.91
2022-09-16T11:54:51.579Z,100262.91
2022-09-16T11:57:23.819Z,100264.78
2022-09-16T11:59:56.035Z,100256.53
2022-09-16T12:02:29.103Z,100261.81
2022-09-16T12:05:03.010Z,100275.34
2022-09-16T12:07:37.503Z,100273.28
2022-09-16T12:10:13.971Z,100259.03
2022-09-16T12:12:47.099Z,100260.31
2022-09-16T12:15:20.885Z,100255.41
2022-09-16T12:17:55.063Z,100248.09
2022-09-16T12:20:27.291Z,100252.91
2022-09-16T12:23:00.290Z,100246.13
2022-09-16T12:25:34.276Z,100245.78
2022-09-16T12:28:05.209Z,100244.56
2022-09-16T12:30:38.769Z,100249.16
2022-09-16T12:33:15.366Z,100253.72
2022-09-16T12:35:48.613Z,100238.00
2022-09-16T12:38:19.277Z,100244.56
2022-09-16T12:41:03.611Z,100246.41
2022-09-16T12:44:16.712Z,100243.19
2022-09-16T12:47:32.037Z,100246.44
2022-09-16T12:50:22.108Z,100240.84
2022-09-16T12:53:30.726Z,100231.59
2022-09-16T12:56:09.387Z,100238.09
2022-09-16T12:58:56.717Z,100230.75
2022-09-16T13:01:27.340Z,100232.44
2022-09-16T13:03:59.551Z,100230.56
2022-09-16T13:06:31.007Z,100224.22
2022-09-16T13:09:16.220Z,100219.91
2022-09-16T13:12:31.848Z,100235.59
2022-09-16T13:14:47.384Z,100228.25
2022-09-16T13:17:14.999Z,100222.88
2022-09-16T13:19:47.922Z,100221.28
2022-09-16T13:22:25.342Z,100228.41
2022-09-16T13:25:00.640Z,100235.03
2022-09-16T13:27:34.452Z,100223.38
2022-09-16T13:30:26.513Z,100222.47
2022-09-16T13:33:19.888Z,100221.06
2022-09-16T13:35:50.163Z,100223.91
2022-09-16T13:38:40.349Z,100214.44
2022-09-16T13:41:12.018Z,100227.91
2022-09-16T13:43:52.779Z,100217.09
2022-09-16T13:46:37.377Z,100211.44
2022-09-16T13:49:20.664Z,100214.66
2022-09-16T13:51:50.768Z,100219.38
2022-09-16T13:54:30.137Z,100216.09
2022-09-16T13:57:15.495Z,100218.47
2022-09-16T14:00:02.156Z,100216.53
2022-09-16T14:02:42.833Z,100219.16
2022-09-16T14:05:28.608Z,100218.78
2022-09-16T14:08:02.729Z,100219.06
2022-09-16T14:10:38.438Z,100232.72
2022-09-16T14:13:12.137Z,100221.34
2022-09-16T14:15:43.259Z,100228.53
2022-09-16T14:18:14.370Z,100223.16
2022-09-16T14:20:55.237Z,100227.91
2022-09-16T14:23:25.519Z,100226.75
2022-09-16T14:25:55.487Z,100216.53
2022-09-16T14:28:24.992Z,100211.50
2022-09-16T14:30:56.379Z,100201.25
2022-09-16T14:33:28.577Z,100209.00
2022-09-16T14:35:57.468Z,100205.63
2022-09-16T14:38:45.587Z,100207.09
2022-09-16T14:41:23.736Z,100200.88
2022-09-16T14:43:52.312Z,100210.69
2022-09-16T14:46:20.499Z,100206.75
2022-09-16T14:48:48.813Z,100197.97
2022-09-16T14:51:22.564Z,100209.38
2022-09-16T14:54:13.623Z,100203.78
2022-09-16T14:56:42.791Z,100204.00
2022-09-16T14:59:13.275Z,100206.25
2022-09-16T15:01:41.301Z,100202.31
2022-09-16T15:04:16.514Z,100194.72
2022-09-16T15:06:49.153Z,100193.91
2022-09-16T15:09:23.742Z,100190.25
2022-09-16T15:11:57.529Z,100204.44
2022-09-16T15:14:26.750Z,100200.09
2022-09-16T15:16:57.276Z,100193.63
2022-09-16T15:19:28.329Z,100193.81
2022-09-16T15:21:56.472Z,100188.16
2022-09-16T15:24:28.806Z,100189.81
2022-09-16T15:26:59.028Z,100193.34
2022-09-16T15:29:32.724Z,100190.75
2022-09-16T15:32:19.296Z,100202.78
2022-09-16T15:34:47.029Z,100200.81
2022-09-16T15:37:32.850Z,100194.03
2022-09-16T15:40:32.504Z,100196.53
2022-09-16T15:43:14.630Z,100197.34
2022-09-16T15:45:45.352Z,100198.03
2022-09-16T15:48:18.243Z,100197.09
2022-09-16T15:50:50.134Z,100203.28
2022-09-16T15:53:19.295Z,100209.06
2022-09-16T15:55:56.670Z,100195.56
2022-09-16T15:58:39.391Z,100202.97
2022-09-16T16:01:13.231Z,100215.56
2022-09-16T16:03:53.177Z,100209.09
2022-09-16T16:06:21.255Z,100218.69
2022-09-16T16:08:50.991Z,100218.06
2022-09-16T16:11:20.079Z,100213.66
2022-09-16T16:13:50.085Z,100228.84
2022-09-16T16:16:20.216Z,100213.22
2022-09-16T16:18:47.961Z,100216.06
2022-09-16T16:21:17.475Z,100219.25
2022-09-16T16:23:45.563Z,100220.91
2022-09-16T16:26:13.198Z,100218.78
2022-09-16T16:28:40.767Z,100220.16
2022-09-16T16:31:11.827Z,100213.03
2022-09-16T16:33:42.539Z,100220.16
2022-09-16T16:36:12.401Z,100227.00
2022-09-16T16:38:40.355Z,100222.38
2022-09-16T16:41:08.289Z,100228.47
2022-09-16T16:43:35.974Z,100238.91
2022-09-16T16:46:03.716Z,100227.34
2022-09-16T16:48:32.708Z,100223.88
2022-09-16T16:51:03.436Z,100219.88
2022-09-16T16:53:31.700Z,100220.44
2022-09-16T16:56:04.667Z,100226.63
2022-09-16T16:58:32.304Z,100225.50
2022-09-16T17:01:08.323Z,100220.84
2022-09-16T17:03:37.531Z,100222.41
2022-09-16T17:06:06.839Z,100230.44
2022-09-16T17:08:35.275Z,100237.66
2022-09-16T17:11:07.781Z,100244.38
2022-09-16T17:13:35.386Z,100231.88
2022-09-16T17:16:03.546Z,100227.06
2022-09-16T17:18:31.151Z,100237.97
2022-09-16T17:21:04.538Z,100232.31
2022-09-16T17:23:32.371Z,100234.78
2022-09-16T17:26:00.483Z,100236.53
2022-09-16T17:28:28.536Z,100244.56
2022-09-16T17:30:56.450Z,100246.22
2022-09-16T17:33:24.316Z,100241.75
2022-09-16T17:36:01.586Z,100253.84
2022-09-16T17:38:30.951Z,100247.66
2022-09-16T17:41:03.415Z,100258.88
2022-09-16T17:43:32.693Z,100250.84
2022-09-16T17:46:00.944Z,100250.84
2022-09-16T17:48:29.296Z,100253.91
2022-09-16T17:50:59.199Z,100245.38
2022-09-16T17:53:27.130Z,100262.28
2022-09-16T17:56:03.102Z,100263.81
2022-09-16T17:58:30.860Z,100265.00
2022-09-16T18:01:05.153Z,100263.16
2022-09-16T18:03:32.826Z,100269.16
2022-09-16T18:06:05.242Z,100260.84
2022-09-16T18:08:32.895Z,100269.84
2022-09-16T18:11:01.985Z,100270.69
2022-09-16T18:13:29.742Z,100282.78
2022-09-16T18:15:57.524Z,100300.00
2022-09-16T18:18:25.132Z,100296.34
2022-09-16T18:20:54.186Z,100302.88
2022-09-16T18:23:22.639Z,100304.22
2022-09-16T18:25:50.712Z,100303.44
2022-09-16T18:28:20.150Z,100291.56
2022-09-16T18:30:47.739Z,100285.69
2022-09-16T18:33:15.368Z,100293.59
2022-09-16T18:35:42.961Z,100291.06
2022-09-16T18:38:12.843Z,100303.78
2022-09-16T18:40:40.442Z,100299.13
2022-09-16T18:43:08.061Z,100289.59
2022-09-16T18:45:37.001Z,100286.44
2022-09-16T18:48:04.776Z,100287.78
2022-09-16T18:50:34.458Z,100293.31
2022-09-16T18:53:02.065Z,100294.97
2022-09-16T18:55:31.261Z,100299.47
2022-09-16T18:57:58.831Z,100306.16
2022-09-16T19:00:26.600Z,100307.66
2022-09-16T19:02:55.801Z,100304.69
2022-09-16T19:05:23.367Z,100309.69
2022-09-16T19:07:51.087Z,100320.56
2022-09-16T19:10:18.751Z,100311.19
2022-09-16T19:12:46.452Z,100307.03
2022-09-16T19:15:14.890Z,100317.72
2022-09-16T19:17:42.515Z,100311.88
2022-09-16T19:20:11.829Z,100314.91
2022-09-16T19:22:39.384Z,100315.22
2022-09-16T19:25:08.120Z,100306.69
2022-09-16T19:27:37.159Z,100306.88
2022-09-16T19:30:05.625Z,100312.53
2022-09-16T19:32:33.205Z,100308.72
2022-09-16T19:35:01.072Z,100309.56
2022-09-16T19:37:30.290Z,100311.53
2022-09-16T19:39:57.862Z,100300.50
2022-09-16T19:42:25.618Z,100307.56
2022-09-16T19:44:53.198Z,100314.22
2022-09-16T19:47:20.927Z,100311.19
2022-09-16T19:49:48.513Z,100315.41
2022-09-16T19:52:16.049Z,100322.56
2022-09-16T19:54:45.324Z,100313.72
2022-09-16T19:57:12.893Z,100312.75
2022-09-16T19:59:40.677Z,100317.41
2022-09-16T20:02:11.088Z,100311.88
2022-09-16T20:04:38.748Z,100324.06
2022-09-16T20:07:10.213Z,100326.94
2022-09-16T20:09:37.795Z,100324.59
2022-09-16T20:12:07.339Z,100317.41
2022-09-16T20:14:36.300Z,100320.41
2022-09-16T20:17:04.200Z,100326.09
2022-09-16T20:19:32.419Z,100322.25
2022-09-16T20:22:01.393Z,100325.59
2022-09-16T20:24:28.990Z,100326.75
2022-09-16T20:26:57.235Z,100332.47
2022-09-16T20:29:26.445Z,100324.94
2022-09-16T20:31:54.295Z,100330.44
2022-09-16T20:34:24.050Z,100331.44
2022-09-16T20:36:52.047Z,100327.44
2022-09-16T20:39:19.716Z,100337.78
2022-09-16T20:41:49.745Z,100331.75
2022-09-16T20:44:17.583Z,100335.59
2022-09-16T20:46:48.086Z,100332.41
2022-09-16T20:49:17.797Z,100337.59
2022-09-16T20:51:45.939Z,100339.41
2022-09-16T20:54:15.449Z,100339.59
2022-09-16T20:56:44.825Z,100349.25
2022-09-16T20:59:16.345Z,100355.44
2022-09-16T21:01:45.948Z,100356.88
2022-09-16T21:04:15.869Z,100354.53
2022-09-16T21:06:43.577Z,100363.53
2022-09-16T21:09:13.541Z,100377.00
2022-09-16T21:11:43.556Z,100393.50
2022-09-16T21:14:14.947Z,100394.00
2022-09-16T21:16:43.497Z,100375.47
2022-09-16T21:19:13.251Z,100384.28
2022-09-16T21:21:44.018Z,100377.75
2022-09-16T21:24:13.006Z,100383.41
2022-09-16T21:26:41.259Z,100390.88
2022-09-16T21:29:10.948Z,100396.56
2022-09-16T21:31:40.974Z,100395.84
2022-09-16T21:34:14.834Z,100400.53
2022-09-16T21:36:44.240Z,100413.22
2022-09-16T21:39:12.903Z,100401.66
2022-09-16T21:41:40.504Z,100401.16
2022-09-16T21:44:08.150Z,100396.66
2022-09-16T21:46:42.878Z,100399.97
2022-09-16T21:49:19.081Z,100394.91
2022-09-16T21:51:46.974Z,100399.06
2022-09-16T21:54:19.633Z,100404.56
2022-09-16T21:56:47.725Z,100397.19
2022-09-16T21:59:15.675Z,100408.00
2022-09-16T22:01:43.474Z,100401.13
2022-09-16T22:04:15.494Z,100402.31
2022-09-16T22:06:43.725Z,100401.63
2022-09-16T22:09:12.781Z,100409.09
2022-09-16T22:11:42.087Z,100406.25
2022-09-16T22:14:10.992Z,100404.75
2022-09-16T22:16:39.853Z,100406.03
2022-09-16T22:19:09.427Z,100404.38
2022-09-16T22:21:41.132Z,100407.38
2022-09-16T22:24:09.492Z,100406.66
2022-09-16T22:26:37.897Z,100406.84
2022-09-16T22:29:08.851Z,100409.50
2022-09-16T22:31:38.512Z,100405.44
2022-09-16T22:34:06.648Z,100402.78
2022-09-16T22:36:36.495Z,100397.78
2022-09-16T22:39:07.919Z,100398.06
2022-09-16T22:41:35.620Z,100399.06
2022-09-16T22:44:04.019Z,100400.91
2022-09-16T22:46:34.298Z,100396.84
2022-09-16T22:49:02.408Z,100396.84
2022-09-16T22:51:30.059Z,100399.69
2022-09-16T22:53:57.720Z,100395.50
2022-09-16T22:56:32.004Z,100405.78
2022-09-16T22:59:01.448Z,100400.91
2022-09-16T23:01:32.067Z,100404.41
2022-09-16T23:04:01.804Z,100402.88
2022-09-16T23:06:31.191Z,100408.19
2022-09-16T23:08:59.201Z,100413.53
2022-09-16T23:11:32.499Z,100404.69
2022-09-16T23:14:01.054Z,100402.56
2022-09-16T23:16:30.734Z,100393.34
2022-09-16T23:19:01.357Z,100398.81
2022-09-16T23:21:30.189Z,100397.31
2022-09-16T23:24:01.535Z,100401.94
2022-09-16T23:26:32.767Z,100398.75
2022-09-16T23:29:02.889Z,100405.88
2022-09-16T23:31:32.959Z,100398.88
2022-09-16T23:34:01.701Z,100403.53
2022-09-16T23:36:29.474Z,100388.72
2022-09-16T23:38:57.495Z,100390.50
2022-09-16T23:41:27.209Z,100395.16
2022-09-16T23:43:59.394Z,100408.47
2022-09-16T23:46:31.030Z,100401.63
2022-09-16T23:48:59.247Z,100407.81
2022-09-16T23:51:28.886Z,100404.59
2022-09-16T23:53:57.532Z,100404.91
2022-09-16T23:56:25.581Z,100410.91
2022-09-16T23:58:53.130Z,100409.41
